createdAt,value
2023-01-23T00:00:40.644Z,2.60
2023-01-23T00:03:07.829Z,3.00
2023-01-23T00:05:34.960Z,2.58
2023-01-23T00:08:02.121Z,2.47
2023-01-23T00:10:29.252Z,3.08
2023-01-23T00:12:57.665Z,3.10
2023-01-23T00:15:24.878Z,2.58
2023-01-23T00:17:52.226Z,3.63
2023-01-23T00:20:20.312Z,2.95
2023-01-23T00:22:47.737Z,3.30
2023-01-23T00:25:14.889Z,3.42
2023-01-23T00:27:42.020Z,3.40
2023-01-23T00:30:09.563Z,3.95
2023-01-23T00:32:36.742Z,3.28
2023-01-23T00:35:04.058Z,3.55
2023-01-23T00:37:31.302Z,3.28
2023-01-23T00:39:58.423Z,4.10
2023-01-23T00:42:25.615Z,3.80
2023-01-23T00:44:52.799Z,4.28
2023-01-23T00:47:20.005Z,4.40
2023-01-23T00:49:47.213Z,3.83
2023-01-23T00:52:14.352Z,4.23
2023-01-23T00:54:41.517Z,4.00
2023-01-23T00:57:08.693Z,4.25
2023-01-23T00:59:35.830Z,4.63
2023-01-23T01:02:03.088Z,4.65
2023-01-23T01:04:30.283Z,4.50
2023-01-23T01:06:57.413Z,5.00
2023-01-23T01:09:24.879Z,5.00
2023-01-23T01:11:52.295Z,5.28
2023-01-23T01:14:19.556Z,5.15
2023-01-23T01:16:46.725Z,5.40
2023-01-23T01:19:14.494Z,4.70
2023-01-23T01:21:42.291Z,5.50
2023-01-23T01:24:09.751Z,5.25
2023-01-23T01:26:37.059Z,5.05
2023-01-23T01:29:04.255Z,5.67
2023-01-23T01:31:31.506Z,5.50
2023-01-23T01:33:58.700Z,5.78
2023-01-23T01:36:27.065Z,6.90
2023-01-23T01:38:54.291Z,6.07
2023-01-23T01:41:21.471Z,6.45
2023-01-23T01:43:48.721Z,6.65
2023-01-23T01:46:18.713Z,6.80
2023-01-23T01:48:50.807Z,6.00
2023-01-23T01:51:19.619Z,6.47
2023-01-23T01:53:47.359Z,6.75
2023-01-23T01:56:14.551Z,7.55
2023-01-23T01:58:41.919Z,7.28
2023-01-23T02:01:09.230Z,6.63
2023-01-23T02:03:36.427Z,8.13
2023-01-23T02:06:03.686Z,7.05
2023-01-23T02:08:32.785Z,6.90
2023-01-23T02:11:03.485Z,6.95
2023-01-23T02:13:36.802Z,7.20
2023-01-23T02:16:08.036Z,7.75
2023-01-23T02:18:35.701Z,7.82
2023-01-23T02:21:04.438Z,7.68
2023-01-23T02:23:44.107Z,8.10
2023-01-23T02:26:17.974Z,8.25
2023-01-23T02:28:46.216Z,8.68
2023-01-23T02:31:13.601Z,7.55
2023-01-23T02:33:40.825Z,8.45
2023-01-23T02:36:09.055Z,7.57
2023-01-23T02:38:37.646Z,8.20
2023-01-23T02:41:05.049Z,8.77
2023-01-23T02:43:35.135Z,8.60
2023-01-23T02:46:03.223Z,9.02
2023-01-23T02:48:30.459Z,9.05
2023-01-23T02:50:57.703Z,8.95
2023-01-23T02:53:25.719Z,8.80
2023-01-23T02:55:52.928Z,8.48
2023-01-23T02:58:38.662Z,8.68
2023-01-23T03:01:05.992Z,9.23
2023-01-23T03:03:33.233Z,8.30
2023-01-23T03:06:03.428Z,8.68
2023-01-23T03:08:34.176Z,9.18
2023-01-23T03:11:01.697Z,9.88
2023-01-23T03:13:29.670Z,9.48
2023-01-23T03:16:00.027Z,9.13
2023-01-23T03:18:31.230Z,8.30
2023-01-23T03:21:02.122Z,10.60
2023-01-23T03:23:29.286Z,10.40
2023-01-23T03:25:58.613Z,9.93
2023-01-23T03:28:44.998Z,10.45
2023-01-23T03:31:12.933Z,9.20
2023-01-23T03:33:43.254Z,10.50
2023-01-23T03:36:13.512Z,10.43
2023-01-23T03:39:00.601Z,10.13
2023-01-23T03:41:28.122Z,10.53
2023-01-23T03:43:55.274Z,9.27
2023-01-23T03:46:22.403Z,11.05
2023-01-23T03:48:49.588Z,10.38
2023-01-23T03:51:16.772Z,11.10
2023-01-23T03:53:44.072Z,10.07
2023-01-23T03:56:11.255Z,10.13
2023-01-23T03:58:38.406Z,11.15
2023-01-23T04:01:09.586Z,11.20
2023-01-23T04:03:36.868Z,11.50
2023-01-23T04:06:04.069Z,12.07
2023-01-23T04:08:31.307Z,10.65
2023-01-23T04:11:05.302Z,11.93
2023-01-23T04:13:32.557Z,11.13
2023-01-23T04:16:00.095Z,11.70
2023-01-23T04:18:27.320Z,11.98
2023-01-23T04:20:54.725Z,11.25
2023-01-23T04:23:22.074Z,12.10
2023-01-23T04:25:49.240Z,12.03
2023-01-23T04:28:16.407Z,12.50
2023-01-23T04:30:44.356Z,12.70
2023-01-23T04:33:11.688Z,12.02
2023-01-23T04:35:38.856Z,13.05
2023-01-23T04:38:06.001Z,12.05
2023-01-23T04:40:33.222Z,12.13
2023-01-23T04:43:00.519Z,12.27
2023-01-23T04:45:27.743Z,13.18
2023-01-23T04:47:54.967Z,12.30
2023-01-23T04:50:22.271Z,12.82
2023-01-23T04:52:49.601Z,13.30
2023-01-23T04:55:16.773Z,13.68
2023-01-23T04:57:43.888Z,13.20
2023-01-23T05:00:11.382Z,14.20
2023-01-23T05:02:38.615Z,14.20
2023-01-23T05:05:06.883Z,14.40
2023-01-23T05:07:34.006Z,13.82
2023-01-23T05:10:01.211Z,14.40
2023-01-23T05:12:28.557Z,15.32
2023-01-23T05:14:55.686Z,15.50
2023-01-23T05:17:22.801Z,15.10
2023-01-23T05:19:49.974Z,14.40
2023-01-23T05:22:18.036Z,14.50
2023-01-23T05:24:45.424Z,14.85
2023-01-23T05:27:12.968Z,15.73
2023-01-23T05:29:40.159Z,16.27
2023-01-23T05:32:07.384Z,16.40
2023-01-23T05:34:34.547Z,15.40
2023-01-23T05:37:01.851Z,15.95
2023-01-23T05:39:28.996Z,17.67
2023-01-23T05:41:56.210Z,17.98
2023-01-23T05:44:23.420Z,17.98
2023-01-23T05:46:50.552Z,18.27
2023-01-23T05:49:17.760Z,18.35
2023-01-23T05:51:44.892Z,18.85
2023-01-23T05:54:13.207Z,19.60
2023-01-23T05:56:40.501Z,19.08
2023-01-23T05:59:07.661Z,19.38
2023-01-23T06:01:35.658Z,20.23
2023-01-23T06:04:02.783Z,20.63
2023-01-23T06:06:29.971Z,20.27
2023-01-23T06:08:59.099Z,21.77
2023-01-23T06:11:26.261Z,21.77
2023-01-23T06:13:53.415Z,20.27
2023-01-23T06:16:20.671Z,20.75
2023-01-23T06:18:47.916Z,20.50
2023-01-23T06:21:17.791Z,21.00
2023-01-23T06:23:47.937Z,19.73
2023-01-23T06:26:15.384Z,20.77
2023-01-23T06:28:42.550Z,20.75
2023-01-23T06:31:10.499Z,20.13
2023-01-23T06:33:38.996Z,22.70
2023-01-23T06:36:06.683Z,19.58
2023-01-23T06:38:33.937Z,20.70
2023-01-23T06:41:01.124Z,22.65
2023-01-23T06:43:28.401Z,20.60
2023-01-23T06:45:55.637Z,19.48
2023-01-23T06:48:22.798Z,19.38
2023-01-23T06:50:50.014Z,20.60
2023-01-23T06:53:18.274Z,20.38
2023-01-23T06:55:45.553Z,19.17
2023-01-23T06:58:12.729Z,20.67
2023-01-23T07:00:40.071Z,18.45
2023-01-23T07:03:07.257Z,17.25
2023-01-23T07:05:37.212Z,16.60
2023-01-23T07:08:05.088Z,16.00
2023-01-23T07:10:32.396Z,17.90
2023-01-23T07:12:59.669Z,16.52
2023-01-23T07:15:26.824Z,17.88
2023-01-23T07:17:53.970Z,16.08
2023-01-23T07:20:23.747Z,18.38
2023-01-23T07:22:51.445Z,17.55
2023-01-23T07:25:22.325Z,16.00
2023-01-23T07:27:49.567Z,16.37
2023-01-23T07:30:17.098Z,16.50
2023-01-23T07:32:44.412Z,15.77
2023-01-23T07:35:11.602Z,17.02
2023-01-23T07:57:34.049Z,16.02
2023-01-23T08:00:01.243Z,16.65
2023-01-23T08:02:28.528Z,16.35
2023-01-23T08:04:55.743Z,17.40
2023-01-23T08:07:23.956Z,16.60
2023-01-23T08:09:51.179Z,15.38
2023-01-23T08:12:18.414Z,15.48
2023-01-23T08:14:45.696Z,16.23
2023-01-23T08:17:12.977Z,16.92
2023-01-23T08:19:40.207Z,16.00
2023-01-23T08:22:07.415Z,15.83
2023-01-23T08:24:34.631Z,16.83
2023-01-23T08:27:01.942Z,16.27
2023-01-23T08:29:29.346Z,15.77
2023-01-23T08:31:56.630Z,15.07
2023-01-23T08:34:24.294Z,14.27
2023-01-23T08:36:51.475Z,13.75
2023-01-23T08:39:19.994Z,15.75
2023-01-23T08:41:47.285Z,14.77
2023-01-23T08:44:14.482Z,15.52
2023-01-23T08:46:43.056Z,15.30
2023-01-23T08:49:11.371Z,16.10
2023-01-23T08:51:38.686Z,15.40
2023-01-23T08:54:06.175Z,15.85
2023-01-23T08:56:33.393Z,16.05
2023-01-23T08:59:00.596Z,16.45
2023-01-23T09:01:28.004Z,15.23
2023-01-23T09:03:55.288Z,15.75
2023-01-23T09:06:22.968Z,15.93
2023-01-23T09:08:50.177Z,16.10
2023-01-23T09:11:17.527Z,14.38
2023-01-23T09:13:45.845Z,15.40
2023-01-23T09:16:13.124Z,16.17
2023-01-23T09:18:40.405Z,15.00
2023-01-23T09:21:11.946Z,15.90
2023-01-23T09:23:39.210Z,16.73
2023-01-23T09:26:06.881Z,14.10
2023-01-23T09:28:34.062Z,16.42
2023-01-23T09:31:04.945Z,15.45
2023-01-23T09:33:32.592Z,16.52
2023-01-23T09:35:59.829Z,15.93
2023-01-23T09:38:27.232Z,14.88
2023-01-23T09:40:55.674Z,14.63
2023-01-23T09:43:25.854Z,14.77
2023-01-23T09:46:11.248Z,14.00
2023-01-23T09:48:48.597Z,15.43
2023-01-23T09:51:23.824Z,14.63
2023-01-23T09:53:51.088Z,14.85
2023-01-23T09:56:24.095Z,15.75
2023-01-23T09:58:57.269Z,15.13
2023-01-23T10:01:25.237Z,14.48
2023-01-23T10:03:52.407Z,13.07
2023-01-23T10:06:26.200Z,13.85
2023-01-23T10:09:12.142Z,14.10
2023-01-23T10:11:58.201Z,13.60
2023-01-23T10:14:46.748Z,13.88
2023-01-23T10:17:26.797Z,14.40
2023-01-23T10:20:03.325Z,13.73
2023-01-23T10:22:30.584Z,14.52
2023-01-23T10:24:58.053Z,15.00
2023-01-23T10:27:31.530Z,14.18
2023-01-23T10:30:00.228Z,13.50
2023-01-23T10:32:28.595Z,14.63
2023-01-23T10:34:59.689Z,14.43
2023-01-23T10:37:32.942Z,13.95
2023-01-23T10:40:13.164Z,13.13
2023-01-23T10:42:40.407Z,14.35
2023-01-23T10:45:07.908Z,14.35
2023-01-23T10:47:43.109Z,13.97
2023-01-23T10:50:10.770Z,13.95
2023-01-23T10:52:47.031Z,14.90
2023-01-23T10:55:20.768Z,13.32
2023-01-23T10:57:49.309Z,13.90
2023-01-23T11:00:26.132Z,14.35
2023-01-23T11:02:53.405Z,14.50
2023-01-23T11:05:33.691Z,13.63
2023-01-23T11:08:04.936Z,13.00
2023-01-23T11:10:32.125Z,14.57
2023-01-23T11:13:00.856Z,14.27
2023-01-23T11:15:29.679Z,14.23
2023-01-23T11:17:57.451Z,14.10
2023-01-23T11:20:29.033Z,14.45
2023-01-23T11:23:11.513Z,14.23
2023-01-23T11:25:44.211Z,15.50
2023-01-23T11:28:17.563Z,16.63
2023-01-23T11:31:13.804Z,15.07
2023-01-23T11:33:57.766Z,15.30
2023-01-23T11:36:37.503Z,15.30
2023-01-23T11:39:08.087Z,16.60
2023-01-23T11:41:35.633Z,15.38
2023-01-23T11:44:04.748Z,15.35
2023-01-23T11:46:36.141Z,15.80
2023-01-23T11:49:06.424Z,16.65
2023-01-23T11:51:36.839Z,16.65
2023-01-23T11:54:07.473Z,17.42
2023-01-23T11:56:40.875Z,17.23
2023-01-23T11:59:26.268Z,16.10
2023-01-23T12:02:03.376Z,15.75
2023-01-23T12:04:36.889Z,18.08
2023-01-23T12:07:07.678Z,17.05
2023-01-23T12:09:55.165Z,16.05
2023-01-23T12:12:22.333Z,16.20
2023-01-23T12:14:55.637Z,17.17
2023-01-23T12:17:33.496Z,17.40
2023-01-23T12:20:19.995Z,16.70
2023-01-23T12:23:06.873Z,15.82
2023-01-23T12:25:37.065Z,15.25
2023-01-23T12:28:13.420Z,14.52
2023-01-23T12:30:43.502Z,13.95
2023-01-23T12:33:22.203Z,15.20
2023-01-23T12:35:49.458Z,13.70
2023-01-23T12:38:22.692Z,13.45
2023-01-23T12:40:52.727Z,13.15
2023-01-23T12:43:39.401Z,13.38
2023-01-23T12:46:11.265Z,12.07
2023-01-23T12:48:44.044Z,12.80
2023-01-23T12:51:13.727Z,11.63
2023-01-23T12:53:41.046Z,13.13
2023-01-23T12:56:12.157Z,13.98
2023-01-23T12:58:41.558Z,12.90
2023-01-23T13:01:13.931Z,12.93
2023-01-23T13:03:50.476Z,11.23
2023-01-23T13:06:18.501Z,12.65
2023-01-23T13:09:12.016Z,11.33
2023-01-23T13:11:47.747Z,12.00
2023-01-23T13:14:31.492Z,11.75
2023-01-23T13:17:04.773Z,11.65
2023-01-23T13:19:51.299Z,10.70
2023-01-23T13:22:26.957Z,11.05
2023-01-23T13:25:14.477Z,11.43
2023-01-23T13:27:45.096Z,11.95
2023-01-23T13:30:31.800Z,11.63
2023-01-23T13:33:20.951Z,11.18
2023-01-23T13:35:49.393Z,11.32
2023-01-23T13:38:22.728Z,12.88
2023-01-23T13:41:04.753Z,13.43
2023-01-23T13:43:50.556Z,10.85
2023-01-23T13:46:26.955Z,13.30
2023-01-23T14:22:46.147Z,14.63
2023-01-23T14:25:22.684Z,12.57
2023-01-23T14:27:54.321Z,13.10
2023-01-23T14:30:27.468Z,12.90
2023-01-23T14:32:54.826Z,12.82
2023-01-23T14:35:29.018Z,11.75
2023-01-23T14:37:57.394Z,11.43
2023-01-23T14:40:28.054Z,12.80
2023-01-23T14:42:58.616Z,13.10
2023-01-23T14:45:25.797Z,13.20
2023-01-23T14:48:04.636Z,12.40
2023-01-23T14:50:33.158Z,13.75
2023-01-23T14:53:05.090Z,16.10
2023-01-23T14:55:32.520Z,15.68
2023-01-23T14:58:00.287Z,15.02
2023-01-23T15:00:27.757Z,13.48
2023-01-23T15:02:56.291Z,13.40
2023-01-23T15:05:23.994Z,12.45
2023-01-23T15:07:57.449Z,12.18
2023-01-23T15:10:25.729Z,12.05
2023-01-23T15:13:01.497Z,11.07
2023-01-23T15:15:28.965Z,10.70
2023-01-23T15:17:56.511Z,13.02
2023-01-23T15:20:32.948Z,12.05
2023-01-23T15:23:01.085Z,13.05
2023-01-23T15:25:32.715Z,12.82
2023-01-23T15:27:59.948Z,13.65
2023-01-23T15:30:30.324Z,13.93
2023-01-23T15:32:58.132Z,12.43
2023-01-23T15:35:25.287Z,13.45
2023-01-23T15:37:55.937Z,13.20
2023-01-23T15:40:25.845Z,13.88
2023-01-23T15:43:11.772Z,13.55
2023-01-23T15:45:38.950Z,14.07
2023-01-23T15:48:06.485Z,12.15
2023-01-23T15:50:33.650Z,10.85
2023-01-23T15:53:00.796Z,10.90
2023-01-23T15:55:27.959Z,10.15
2023-01-23T15:57:55.460Z,13.02
2023-01-23T16:00:29.469Z,12.43
2023-01-23T16:02:57.937Z,12.43
2023-01-23T16:05:32.323Z,12.55
2023-01-23T16:08:03.404Z,12.27
2023-01-23T16:10:31.810Z,12.10
2023-01-23T16:12:59.033Z,11.63
2023-01-23T16:15:27.162Z,12.52
2023-01-23T16:17:54.458Z,13.98
2023-01-23T16:20:22.463Z,14.30
2023-01-23T16:22:53.294Z,13.30
2023-01-23T16:25:25.007Z,11.90
2023-01-23T16:27:58.756Z,14.45
2023-01-23T16:30:25.989Z,17.63
2023-01-23T16:32:53.455Z,16.53
2023-01-23T16:35:20.724Z,18.13
2023-01-23T16:37:49.271Z,14.02
2023-01-23T16:40:23.421Z,14.00
2023-01-23T16:42:50.943Z,14.88
2023-01-23T16:45:19.496Z,14.38
2023-01-23T16:47:46.823Z,12.35
2023-01-23T16:50:14.689Z,14.53
2023-01-23T16:52:41.984Z,13.10
2023-01-23T16:55:26.385Z,12.90
2023-01-23T16:57:54.431Z,13.00
2023-01-23T17:00:34.041Z,13.93
2023-01-23T17:03:02.114Z,13.52
2023-01-23T17:05:29.292Z,13.70
2023-01-23T17:07:56.459Z,13.70
2023-01-23T17:10:27.725Z,15.38
2023-01-23T17:12:57.335Z,13.93
2023-01-23T17:15:25.321Z,14.48
2023-01-23T17:17:53.393Z,14.30
2023-01-23T17:20:20.690Z,15.07
2023-01-23T17:22:47.995Z,13.00
2023-01-23T17:25:36.072Z,13.32
2023-01-23T17:28:12.888Z,13.65
2023-01-23T17:30:40.597Z,14.40
2023-01-23T17:33:09.671Z,13.55
2023-01-23T17:35:37.224Z,13.30
2023-01-23T17:38:04.401Z,13.80
2023-01-23T17:40:31.946Z,15.27
2023-01-23T17:42:59.240Z,15.65
2023-01-23T17:45:27.081Z,14.52
2023-01-23T17:47:54.658Z,16.35
2023-01-23T17:50:22.764Z,17.50
2023-01-23T17:52:50.221Z,16.63
2023-01-23T17:55:18.435Z,15.82
2023-01-23T17:57:45.631Z,17.13
2023-01-23T18:00:13.532Z,17.10
2023-01-23T18:02:40.961Z,18.17
2023-01-23T18:05:11.073Z,16.38
2023-01-23T18:07:52.377Z,15.30
2023-01-23T18:10:21.236Z,14.77
2023-01-23T18:12:48.460Z,15.70
2023-01-23T18:15:42.086Z,17.70
2023-01-23T18:18:13.271Z,14.93
2023-01-23T18:20:40.529Z,18.00
2023-01-23T18:23:08.699Z,19.50
2023-01-23T18:25:35.955Z,16.83
2023-01-23T18:28:04.181Z,17.63
2023-01-23T18:30:34.588Z,15.43
2023-01-23T18:33:01.763Z,14.82
2023-01-23T18:35:44.014Z,15.63
2023-01-23T18:38:20.210Z,14.82
2023-01-23T18:40:58.617Z,14.00
2023-01-23T18:43:35.942Z,12.97
2023-01-23T18:46:03.258Z,12.85
2023-01-23T18:48:30.574Z,14.43
2023-01-23T18:51:00.690Z,15.25
2023-01-23T18:53:36.880Z,13.98
2023-01-23T18:56:04.040Z,13.00
2023-01-23T18:58:43.418Z,12.33
2023-01-23T19:01:22.800Z,11.20
2023-01-23T19:03:50.373Z,13.40
2023-01-23T19:06:22.256Z,12.20
2023-01-23T19:08:50.456Z,10.63
2023-01-23T19:11:24.750Z,10.98
2023-01-23T19:13:59.395Z,8.63
2023-01-23T19:16:31.009Z,8.95
2023-01-23T19:19:14.267Z,7.97
2023-01-23T19:21:42.618Z,8.88
2023-01-23T19:24:11.136Z,9.18
2023-01-23T19:26:39.273Z,8.88
2023-01-23T19:29:20.515Z,9.25
2023-01-23T19:32:04.799Z,8.95
2023-01-23T19:34:32.863Z,7.93
2023-01-23T19:37:00.097Z,8.77
2023-01-23T19:39:27.267Z,9.23
2023-01-23T19:41:54.460Z,9.75
2023-01-23T19:44:24.940Z,9.70
2023-01-23T19:46:52.359Z,8.90
2023-01-23T19:49:19.772Z,8.57
2023-01-23T19:51:47.097Z,8.70
2023-01-23T19:54:14.778Z,8.20
2023-01-23T19:56:42.445Z,9.23
2023-01-23T19:59:09.816Z,9.13
2023-01-23T20:01:48.481Z,9.98
2023-01-23T20:04:16.671Z,10.48
2023-01-23T20:06:45.448Z,8.95
2023-01-23T20:09:14.616Z,7.97
2023-01-23T20:11:42.230Z,6.70
2023-01-23T20:14:09.409Z,7.15
2023-01-23T20:16:40.258Z,7.80
2023-01-23T20:19:07.732Z,8.10
2023-01-23T20:21:34.956Z,8.23
2023-01-23T20:24:02.183Z,7.43
2023-01-23T20:26:29.374Z,6.80
2023-01-23T20:28:58.065Z,7.40
2023-01-23T20:31:25.345Z,7.90
2023-01-23T20:33:52.571Z,7.60
2023-01-23T20:36:19.775Z,8.68
2023-01-23T20:38:46.927Z,7.93
2023-01-23T20:41:15.047Z,8.35
2023-01-23T20:43:45.398Z,7.93
2023-01-23T20:46:12.929Z,8.20
2023-01-23T20:48:41.636Z,8.00
2023-01-23T20:51:09.793Z,8.20
2023-01-23T20:53:39.518Z,7.88
2023-01-23T20:56:10.835Z,7.40
2023-01-23T20:58:58.124Z,8.60
2023-01-23T21:01:26.194Z,7.87
2023-01-23T21:03:53.468Z,9.05
2023-01-23T21:06:20.745Z,7.25
2023-01-23T21:08:48.058Z,6.55
2023-01-23T21:11:16.671Z,7.53
2023-01-23T21:13:43.882Z,7.60
2023-01-23T21:16:14.685Z,6.60
2023-01-23T21:18:44.702Z,6.65
2023-01-23T21:21:13.293Z,7.93
2023-01-23T21:23:40.514Z,7.43
2023-01-23T21:26:07.702Z,6.28
2023-01-23T21:28:36.434Z,7.07
2023-01-23T21:31:13.580Z,7.10
2023-01-23T21:33:43.977Z,7.28
2023-01-23T21:36:11.870Z,9.02
2023-01-23T21:38:39.180Z,8.10
2023-01-23T21:41:06.443Z,8.10
2023-01-23T21:43:34.079Z,8.63
2023-01-23T21:46:01.287Z,9.25
2023-01-23T21:48:31.913Z,10.50
2023-01-23T21:51:06.389Z,9.15
2023-01-23T21:53:33.662Z,8.65
2023-01-23T21:56:00.864Z,8.02
2023-01-23T21:58:28.057Z,8.35
2023-01-23T22:01:17.342Z,8.98
2023-01-23T22:03:44.568Z,8.02
2023-01-23T22:06:11.708Z,7.63
2023-01-23T22:08:38.983Z,8.93
2023-01-23T22:11:06.555Z,7.55
2023-01-23T22:13:33.723Z,9.07
2023-01-23T22:16:01.135Z,8.93
2023-01-23T22:18:28.651Z,8.23
2023-01-23T22:20:56.357Z,8.70
2023-01-23T22:23:23.946Z,9.23
2023-01-23T22:25:52.117Z,8.67
2023-01-23T22:28:19.403Z,9.13
2023-01-23T22:30:46.580Z,9.52
2023-01-23T22:33:13.802Z,9.18
2023-01-23T22:35:41.103Z,9.68
2023-01-23T22:38:08.592Z,9.55
2023-01-23T22:40:35.926Z,10.47
2023-01-23T22:43:03.183Z,9.75
2023-01-23T22:45:30.481Z,10.23
2023-01-23T22:47:57.667Z,9.85
2023-01-23T22:50:24.886Z,9.50
2023-01-23T22:52:52.553Z,10.83
2023-01-23T22:55:19.991Z,10.70
2023-01-23T22:57:47.452Z,10.25
2023-01-23T23:00:15.651Z,10.63
2023-01-23T23:02:42.913Z,11.05
2023-01-23T23:05:10.316Z,10.35
2023-01-23T23:07:38.597Z,9.75
2023-01-23T23:10:08.737Z,10.10
2023-01-23T23:12:35.884Z,9.68
2023-01-23T23:15:03.237Z,10.05
2023-01-23T23:17:30.563Z,9.60
2023-01-23T23:19:57.831Z,10.63
2023-01-23T23:22:25.154Z,9.30
2023-01-23T23:24:52.339Z,11.30
2023-01-23T23:27:19.550Z,9.85
2023-01-23T23:29:46.701Z,10.98
2023-01-23T23:32:13.928Z,9.80
2023-01-23T23:34:42.163Z,10.43
2023-01-23T23:37:09.423Z,10.20
2023-01-23T23:39:36.639Z,10.70
2023-01-23T23:42:03.775Z,9.80
2023-01-23T23:44:30.946Z,10.23
2023-01-23T23:46:58.164Z,11.07
2023-01-23T23:49:26.452Z,11.20
2023-01-23T23:51:53.657Z,11.10
2023-01-23T23:54:20.844Z,10.65
2023-01-23T23:56:48.385Z,9.88
2023-01-23T23:59:18.692Z,10.63
